Latest Coastal Weather Observations for Cape Ferguson

IDQ60701

Issued at 10:02 am EST Sunday 17 February 2019 (issued every 10 minutes, with the page automatically refreshed every 10 minutes)

About coastal observations | Map of coastal stations | Coastal observations for QLD | Marine services | Other Formats
Station Details ID: 032182 Name: CAPE FERGUSON NTC AWS Lat: -19.28 Lon: 147.06 Height: 0.0 m
Data from the previous 72 hours. | See also: Recent months for locations in Queensland
Date/Time
EST
Wind Sea
Height
m
Swell Vis
km
Cloud Weather Temp
°C
Press
hPa
Rain since
9am
mm
Dir  Spd
kts
Gust
kts
Height
m
Period
s
Dir
17/10:00am ESE 5 7 - - - - - - - 27.6 1012.6 -
17/09:30am SE 5 7 - - - - - - - 27.4 1012.6 -
17/09:00am SE 7 8 - - - - - - - 27.2 1012.6 -
17/08:30am SSE 6 8 - - - - - - - 26.9 1012.5 -
17/08:00am SSE 6 8 - - - - - - - 26.9 1012.3 -
17/07:30am SSE 6 7 - - - - - - - 26.8 1012.1 -
17/07:00am SSE 7 10 - - - - - - - 26.6 1011.9 -
17/06:30am SE 6 8 - - - - - - - 26.9 1011.4 -
17/06:00am SE 7 9 - - - - - - - 26.9 1010.9 -
17/05:30am SE 6 8 - - - - - - - 26.9 1010.6 -
17/05:00am SE 5 7 - - - - - - - 27.0 1010.4 -
17/04:30am SE 8 11 - - - - - - - 27.0 1010.2 -
17/04:00am ESE 9 12 - - - - - - - 27.5 1010.2 -
17/03:30am E 10 14 - - - - - - - 27.4 1010.2 -
17/03:00am ENE 8 12 - - - - - - - 26.8 1010.2 -
17/02:30am E 16 23 - - - - - - - 26.0 1010.9 -
17/02:00am ENE 10 13 - - - - - - - 27.6 1010.5 -
17/01:30am ENE 10 13 - - - - - - - 27.6 1010.9 -
17/01:00am ENE 10 12 - - - - - - - 27.7 1011.4 -
17/12:30am E 12 14 - - - - - - - 27.8 1011.6 -
17/12:00am E 12 14 - - - - - - - 27.8 1012.0 -
 
Date/Time
EST
Wind Sea
Height
m
Swell Vis
km
Cloud Weather Temp
°C
Press
hPa
Rain since
9am
mm
Dir  Spd
kts
Gust
kts
Height
m
Period
s
Dir
16/11:30pm E 13 15 - - - - - - - 27.8 1012.2 -
16/11:00pm E 12 15 - - - - - - - 27.8 1012.3 -
16/10:30pm E 13 15 - - - - - - - 27.9 1012.3 -
16/10:00pm E 13 15 - - - - - - - 27.9 1012.1 -
16/09:30pm E 12 15 - - - - - - - 28.0 1011.9 -
16/09:00pm E 9 12 - - - - - - - 28.1 1011.6 -
16/08:30pm ENE 10 13 - - - - - - - 28.1 1011.4 -
16/08:00pm ENE 9 11 - - - - - - - 28.3 1011.1 -
16/07:30pm E 10 12 - - - - - - - 28.1 1010.8 -
16/07:00pm E 9 11 - - - - - - - 28.4 1010.6 -
16/06:30pm ENE 8 10 - - - - - - - 28.3 1010.3 -
16/06:00pm ENE 9 11 - - - - - - - 28.5 1010.1 -
16/05:30pm ENE 7 9 - - - - - - - 28.8 1009.8 -
16/05:00pm ENE 8 10 - - - - - - - 28.6 1009.8 -
16/04:30pm ENE 7 11 - - - - - - - 28.9 1009.7 -
16/04:00pm ENE 7 13 - - - - - - - 29.1 1009.8 -
16/03:30pm NNE 6 11 - - - - - - - 29.1 1009.8 -
16/03:00pm NNE 6 11 - - - - - - - 28.9 1010.1 -
16/02:30pm ENE 7 11 - - - - - - - 29.0 1010.5 -
16/02:00pm ENE 8 11 - - - - - - - 28.5 1010.9 -
16/01:30pm ENE 9 11 - - - - - - - 28.7 1011.6 -
16/01:00pm ENE 8 9 - - - - - - - 28.9 1012.0 -
16/12:30pm ENE 7 10 - - - - - - - 28.5 1012.5 -
16/12:00pm ENE 6 7 - - - - - - - 28.7 1013.0 -
16/11:30am E 7 8 - - - - - - - 28.6 1013.6 -
16/11:00am ESE 7 10 - - - - - - - 28.5 1014.0 -
16/10:30am ESE 8 10 - - - - - - - 28.3 1014.3 -
16/10:00am SE 6 7 - - - - - - - 28.2 1014.4 -
16/09:30am SE 7 9 - - - - - - - 27.9 1014.5 -
16/09:00am SSE 7 10 - - - - - - - 27.8 1014.3 -
16/08:30am S 8 10 - - - - - - - 27.5 1014.1 -
16/08:00am SSE 7 9 - - - - - - - 27.1 1013.8 -
16/07:30am SSW 4 5 - - - - - - - 26.6 1013.5 -
16/07:00am WSW 3 4 - - - - - - - 26.8 1013.4 -
16/06:30am WNW 3 4 - - - - - - - 26.6 1013.1 -
16/06:00am WNW 2 3 - - - - - - - 26.4 1012.8 -
16/05:30am W 3 5 - - - - - - - 26.2 1012.6 -
16/05:00am WNW 4 5 - - - - - - - 26.4 1012.5 -
16/04:30am W 2 4 - - - - - - - 26.5 1012.3 -
16/04:00am S 2 4 - - - - - - - 26.8 1012.1 -
16/03:30am SSE 5 7 - - - - - - - 27.4 1012.1 -
16/03:00am E 10 13 - - - - - - - 27.8 1012.3 -
16/02:30am E 10 12 - - - - - - - 28.0 1012.4 -
16/02:00am ESE 10 12 - - - - - - - 28.1 1012.6 -
16/01:30am E 9 11 - - - - - - - 28.1 1013.0 -
16/01:00am E 10 13 - - - - - - - 28.2 1013.1 -
16/12:30am E 11 16 - - - - - - - 28.4 1013.3 -
16/12:00am E 10 12 - - - - - - - 28.4 1013.3 -
 
Date/Time
EST
Wind Sea
Height
m
Swell Vis
km
Cloud Weather Temp
°C
Press
hPa
Rain since
9am
mm
Dir  Spd
kts
Gust
kts
Height
m
Period
s
Dir
15/11:30pm E 10 12 - - - - - - - 28.3 1013.4 -
15/11:00pm E 11 14 - - - - - - - 28.4 1013.6 -
15/10:30pm E 12 14 - - - - - - - 28.4 1013.7 -
15/10:00pm E 11 14 - - - - - - - 28.6 1013.5 -
15/09:30pm E 12 15 - - - - - - - 28.6 1013.5 -
15/09:00pm E 12 15 - - - - - - - 28.5 1013.1 -
15/08:30pm E 11 12 - - - - - - - 28.7 1012.7 -
15/08:00pm E 11 13 - - - - - - - 28.6 1012.5 -
15/07:30pm ENE 9 11 - - - - - - - 28.5 1012.1 -
15/07:00pm ENE 8 9 - - - - - - - 28.5 1011.8 -
15/06:30pm E 8 10 - - - - - - - 28.4 1011.5 -
15/06:00pm ENE 7 9 - - - - - - - 28.6 1011.3 -
15/05:30pm ENE 8 10 - - - - - - - 28.5 1011.2 -
15/05:00pm ENE 9 11 - - - - - - - 28.6 1011.1 -
15/04:30pm ENE 10 12 - - - - - - - 28.6 1011.0 -
15/04:00pm ENE 11 13 - - - - - - - 28.6 1011.1 -
15/03:30pm E 13 15 - - - - - - - 28.4 1011.3 -
15/03:00pm E 13 15 - - - - - - - 28.4 1011.5 -
15/02:30pm E 13 16 - - - - - - - 28.4 1011.8 -
15/02:00pm ENE 14 15 - - - - - - - 28.4 1012.1 -
15/01:30pm E 14 16 - - - - - - - 28.5 1012.2 -
15/01:00pm E 14 17 - - - - - - - 28.4 1012.5 -
15/12:30pm E 13 14 - - - - - - - 28.3 1012.8 -
15/12:00pm E 12 14 - - - - - - - 28.3 1013.0 -
15/11:30am E 9 11 - - - - - - - 28.4 1013.3 -
15/11:00am E 10 12 - - - - - - - 28.2 1013.7 -
15/10:30am E 10 13 - - - - - - - 28.2 1013.9 -
15/10:00am ESE 8 11 - - - - - - - 28.4 1013.8 -
15/09:30am E 9 10 - - - - - - - 28.1 1013.6 -
15/09:00am E 9 10 - - - - - - - 28.1 1013.4 -
15/08:30am E 8 10 - - - - - - - 28.0 1013.2 -
15/08:00am E 8 9 - - - - - - - 28.1 1012.8 -
15/07:30am E 8 9 - - - - - - - 28.1 1012.4 -
15/07:00am E 9 12 - - - - - - - 28.1 1012.3 -
15/06:30am E 9 11 - - - - - - - 28.0 1011.9 -
15/06:00am ESE 9 11 - - - - - - - 28.1 1011.7 -
15/05:30am E 10 11 - - - - - - - 28.0 1011.3 -
15/05:00am E 10 12 - - - - - - - 28.1 1010.9 -
15/04:30am E 10 11 - - - - - - - 28.2 1010.8 -
15/04:00am E 12 14 - - - - - - - 28.2 1010.7 -
15/03:30am E 12 15 - - - - - - - 28.3 1010.6 -
15/03:00am E 12 13 - - - - - - - 28.2 1010.5 -
15/02:30am E 11 13 - - - - - - - 28.3 1010.7 -
15/02:00am E 12 14 - - - - - - - 28.3 1010.6 -
15/01:30am E 12 15 - - - - - - - 28.3 1010.6 -
15/01:00am E 12 15 - - - - - - - 28.5 1011.0 -
15/12:30am E 13 16 - - - - - - - 28.4 1011.2 -
15/12:00am E 15 17 - - - - - - - 28.5 1011.6 -
 
Date/Time
EST
Wind Sea
Height
m
Swell Vis
km
Cloud Weather Temp
°C
Press
hPa
Rain since
9am
mm
Dir  Spd
kts
Gust
kts
Height
m
Period
s
Dir
14/11:30pm E 13 16 - - - - - - - 28.6 1011.6 -
14/11:00pm E 12 15 - - - - - - - 28.6 1011.6 -
14/10:30pm E 10 13 - - - - - - - 28.5 1011.1 -
14/10:00pm E 11 13 - - - - - - - 28.7 1010.9 -
14/09:30pm E 11 14 - - - - - - - 28.7 1010.4 -
14/09:00pm E 11 15 - - - - - - - 28.8 1010.2 -
14/08:30pm E 10 13 - - - - - - - 28.9 1009.6 -
14/08:00pm E 11 13 - - - - - - - 29.0 1009.3 -
14/07:30pm E 10 13 - - - - - - - 29.1 1008.7 -
14/07:00pm E 10 13 - - - - - - - 29.1 1008.1 -
14/06:30pm E 10 13 - - - - - - - 29.3 1007.6 -
14/06:00pm E 9 11 - - - - - - - 29.5 1007.0 -
14/05:30pm ENE 7 9 - - - - - - - 29.6 1006.7 -
14/05:00pm ENE 7 9 - - - - - - - 29.6 1006.4 -
14/04:30pm ENE 9 11 - - - - - - - 29.6 1006.2 -
14/04:00pm ENE 10 12 - - - - - - - 29.5 1006.2 -
14/03:30pm ENE 13 15 - - - - - - - 29.4 1006.0 -
14/03:00pm ENE 13 17 - - - - - - - 29.7 1006.0 -
14/02:30pm E 15 20 - - - - - - - 30.4 1005.8 -
14/02:26pm ESE 13 20 - - - - - - - 31.1 1005.8 -
14/02:00pm SSE 11 13 - - - - - - - 36.4 1005.2 -
14/01:30pm ESE 4 9 - - - - - - - 35.3 1005.5 -
14/01:00pm ENE 3 7 - - - - - - - 34.8 1006.0 -
14/12:30pm NE 4 7 - - - - - - - 34.4 1006.5 -
14/12:00pm NE 4 6 - - - - - - - 33.8 1006.8 -
14/11:30am ENE 3 5 - - - - - - - 34.1 1007.0 -
14/11:00am NNE 1 2 - - - - - - - 34.9 1007.0 -
14/10:30am WSW 6 8 - - - - - - - 34.0 1007.0 -

Other Formats:

Comma delimited format used in spreadsheet applications
http://www.bom.gov.au/fwo/IDQ60701/IDQ60701.94297.axf

JavaScript Object Notation format (JSON) in row-major order
http://www.bom.gov.au/fwo/IDQ60701/IDQ60701.94297.json